sensor_id;sensor_type;location;lat;lon;timestamp;P1;durP1;ratioP1;P2;durP2;ratioP2
67516;SDS011;68821;59.134;37.894;2023-07-20T00:02:16;23.90;;;15.85;;
67516;SDS011;68821;59.134;37.894;2023-07-20T00:04:42;28.10;;;20.80;;
67516;SDS011;68821;59.134;37.894;2023-07-20T00:07:09;20.55;;;15.73;;
67516;SDS011;68821;59.134;37.894;2023-07-20T00:09:35;27.92;;;19.38;;
67516;SDS011;68821;59.134;37.894;2023-07-20T00:12:01;22.55;;;11.13;;
67516;SDS011;68821;59.134;37.894;2023-07-20T00:14:27;14.85;;;4.90;;
67516;SDS011;68821;59.134;37.894;2023-07-20T00:16:55;25.63;;;13.63;;
67516;SDS011;68821;59.134;37.894;2023-07-20T00:19:22;9.70;;;4.82;;
67516;SDS011;68821;59.134;37.894;2023-07-20T00:21:50;32.75;;;19.25;;
67516;SDS011;68821;59.134;37.894;2023-07-20T00:24:16;30.63;;;20.25;;
67516;SDS011;68821;59.134;37.894;2023-07-20T00:26:43;12.45;;;4.55;;
67516;SDS011;68821;59.134;37.894;2023-07-20T00:29:10;27.65;;;17.23;;
67516;SDS011;68821;59.134;37.894;2023-07-20T00:31:36;16.73;;;9.77;;
67516;SDS011;68821;59.134;37.894;2023-07-20T00:34:03;28.92;;;12.35;;
67516;SDS011;68821;59.134;37.894;2023-07-20T00:38:56;21.65;;;15.00;;
67516;SDS011;68821;59.134;37.894;2023-07-20T00:41:22;54.65;;;37.03;;
67516;SDS011;68821;59.134;37.894;2023-07-20T00:43:48;34.30;;;22.23;;
67516;SDS011;68821;59.134;37.894;2023-07-20T00:46:15;37.67;;;21.58;;
67516;SDS011;68821;59.134;37.894;2023-07-20T00:48:41;31.80;;;19.45;;
67516;SDS011;68821;59.134;37.894;2023-07-20T00:53:35;63.08;;;46.13;;
67516;SDS011;68821;59.134;37.894;2023-07-20T00:56:01;21.70;;;9.10;;
67516;SDS011;68821;59.134;37.894;2023-07-20T00:58:27;17.05;;;12.93;;
67516;SDS011;68821;59.134;37.894;2023-07-20T01:00:53;30.10;;;20.63;;
67516;SDS011;68821;59.134;37.894;2023-07-20T01:03:20;19.27;;;12.05;;
67516;SDS011;68821;59.134;37.894;2023-07-20T01:08:27;35.28;;;23.95;;
67516;SDS011;68821;59.134;37.894;2023-07-20T01:11:01;34.03;;;17.65;;
67516;SDS011;68821;59.134;37.894;2023-07-20T01:13:36;23.40;;;11.25;;
67516;SDS011;68821;59.134;37.894;2023-07-20T01:16:03;19.77;;;11.70;;
67516;SDS011;68821;59.134;37.894;2023-07-20T01:18:30;58.95;;;40.00;;
67516;SDS011;68821;59.134;37.894;2023-07-20T01:20:59;23.17;;;13.55;;
67516;SDS011;68821;59.134;37.894;2023-07-20T01:26:36;15.10;;;7.85;;
67516;SDS011;68821;59.134;37.894;2023-07-20T01:32:03;31.67;;;19.83;;
67516;SDS011;68821;59.134;37.894;2023-07-20T01:34:32;19.80;;;9.02;;
67516;SDS011;68821;59.134;37.894;2023-07-20T01:37:02;13.10;;;5.68;;
67516;SDS011;68821;59.134;37.894;2023-07-20T01:41:56;15.55;;;7.93;;
67516;SDS011;68821;59.134;37.894;2023-07-20T01:44:23;11.85;;;5.05;;
67516;SDS011;68821;59.134;37.894;2023-07-20T01:46:49;20.10;;;5.38;;
67516;SDS011;68821;59.134;37.894;2023-07-20T01:49:15;10.18;;;4.68;;
67516;SDS011;68821;59.134;37.894;2023-07-20T01:51:42;9.30;;;3.70;;
67516;SDS011;68821;59.134;37.894;2023-07-20T01:54:08;7.53;;;4.03;;
67516;SDS011;68821;59.134;37.894;2023-07-20T01:56:34;12.07;;;3.53;;
67516;SDS011;68821;59.134;37.894;2023-07-20T01:59:00;14.13;;;5.30;;
67516;SDS011;68821;59.134;37.894;2023-07-20T02:01:26;12.38;;;5.60;;
67516;SDS011;68821;59.134;37.894;2023-07-20T02:03:54;13.55;;;4.43;;
67516;SDS011;68821;59.134;37.894;2023-07-20T02:06:20;18.63;;;6.82;;
67516;SDS011;68821;59.134;37.894;2023-07-20T02:08:47;11.02;;;5.40;;
67516;SDS011;68821;59.134;37.894;2023-07-20T02:11:13;15.18;;;7.78;;
67516;SDS011;68821;59.134;37.894;2023-07-20T02:13:39;9.15;;;5.88;;
67516;SDS011;68821;59.134;37.894;2023-07-20T02:16:05;16.50;;;5.55;;
67516;SDS011;68821;59.134;37.894;2023-07-20T02:18:31;10.75;;;4.75;;
67516;SDS011;68821;59.134;37.894;2023-07-20T02:20:58;10.45;;;5.60;;
67516;SDS011;68821;59.134;37.894;2023-07-20T02:23:25;16.13;;;6.65;;
67516;SDS011;68821;59.134;37.894;2023-07-20T02:25:51;20.38;;;10.15;;
67516;SDS011;68821;59.134;37.894;2023-07-20T02:28:17;21.15;;;10.45;;
67516;SDS011;68821;59.134;37.894;2023-07-20T02:30:43;18.58;;;9.50;;
67516;SDS011;68821;59.134;37.894;2023-07-20T02:33:09;22.83;;;9.52;;
67516;SDS011;68821;59.134;37.894;2023-07-20T02:35:36;23.30;;;13.63;;
67516;SDS011;68821;59.134;37.894;2023-07-20T02:38:02;35.63;;;20.02;;
67516;SDS011;68821;59.134;37.894;2023-07-20T02:40:28;37.15;;;18.58;;
67516;SDS011;68821;59.134;37.894;2023-07-20T02:42:55;36.83;;;25.60;;
67516;SDS011;68821;59.134;37.894;2023-07-20T02:45:21;46.70;;;28.05;;
67516;SDS011;68821;59.134;37.894;2023-07-20T02:47:47;24.00;;;18.83;;
67516;SDS011;68821;59.134;37.894;2023-07-20T02:50:13;48.47;;;32.08;;
67516;SDS011;68821;59.134;37.894;2023-07-20T02:52:39;46.60;;;32.20;;
67516;SDS011;68821;59.134;37.894;2023-07-20T02:55:06;32.08;;;23.02;;
67516;SDS011;68821;59.134;37.894;2023-07-20T02:59:59;40.72;;;25.38;;
67516;SDS011;68821;59.134;37.894;2023-07-20T03:02:25;34.22;;;19.38;;
67516;SDS011;68821;59.134;37.894;2023-07-20T03:04:51;25.98;;;18.40;;
67516;SDS011;68821;59.134;37.894;2023-07-20T03:07:18;45.42;;;31.70;;
67516;SDS011;68821;59.134;37.894;2023-07-20T03:09:44;28.55;;;19.05;;
67516;SDS011;68821;59.134;37.894;2023-07-20T03:12:10;14.27;;;8.40;;
67516;SDS011;68821;59.134;37.894;2023-07-20T03:14:39;18.42;;;8.85;;
67516;SDS011;68821;59.134;37.894;2023-07-20T03:17:05;11.23;;;5.05;;
67516;SDS011;68821;59.134;37.894;2023-07-20T03:19:31;10.07;;;4.35;;
67516;SDS011;68821;59.134;37.894;2023-07-20T03:21:57;7.88;;;4.75;;
67516;SDS011;68821;59.134;37.894;2023-07-20T03:24:24;18.63;;;5.78;;
67516;SDS011;68821;59.134;37.894;2023-07-20T03:26:50;15.98;;;6.53;;
67516;SDS011;68821;59.134;37.894;2023-07-20T03:29:16;11.23;;;5.38;;
67516;SDS011;68821;59.134;37.894;2023-07-20T03:31:43;17.95;;;6.50;;
67516;SDS011;68821;59.134;37.894;2023-07-20T03:34:12;12.27;;;5.88;;
67516;SDS011;68821;59.134;37.894;2023-07-20T03:36:38;9.57;;;4.80;;
67516;SDS011;68821;59.134;37.894;2023-07-20T03:39:04;14.25;;;7.00;;
67516;SDS011;68821;59.134;37.894;2023-07-20T03:41:30;10.50;;;5.60;;
67516;SDS011;68821;59.134;37.894;2023-07-20T03:43:57;8.85;;;4.80;;
67516;SDS011;68821;59.134;37.894;2023-07-20T03:46:23;13.48;;;5.07;;
67516;SDS011;68821;59.134;37.894;2023-07-20T03:48:52;13.00;;;7.15;;
67516;SDS011;68821;59.134;37.894;2023-07-20T03:51:18;9.77;;;4.75;;
67516;SDS011;68821;59.134;37.894;2023-07-20T03:53:44;19.63;;;7.13;;
67516;SDS011;68821;59.134;37.894;2023-07-20T03:56:11;11.27;;;4.65;;
67516;SDS011;68821;59.134;37.894;2023-07-20T03:58:37;12.00;;;4.88;;
67516;SDS011;68821;59.134;37.894;2023-07-20T04:01:03;11.18;;;5.63;;
67516;SDS011;68821;59.134;37.894;2023-07-20T04:03:29;12.80;;;5.63;;
67516;SDS011;68821;59.134;37.894;2023-07-20T04:05:55;9.20;;;5.05;;
67516;SDS011;68821;59.134;37.894;2023-07-20T04:08:23;11.85;;;6.05;;
67516;SDS011;68821;59.134;37.894;2023-07-20T04:10:50;11.07;;;4.88;;
67516;SDS011;68821;59.134;37.894;2023-07-20T04:13:16;9.38;;;5.10;;
67516;SDS011;68821;59.134;37.894;2023-07-20T04:15:42;10.85;;;4.22;;
67516;SDS011;68821;59.134;37.894;2023-07-20T04:18:09;12.27;;;4.97;;
67516;SDS011;68821;59.134;37.894;2023-07-20T04:20:35;13.38;;;4.07;;
67516;SDS011;68821;59.134;37.894;2023-07-20T04:23:01;9.80;;;4.28;;
67516;SDS011;68821;59.134;37.894;2023-07-20T04:25:27;13.70;;;5.03;;
67516;SDS011;68821;59.134;37.894;2023-07-20T04:27:54;9.25;;;5.97;;
67516;SDS011;68821;59.134;37.894;2023-07-20T04:30:21;14.82;;;7.28;;
67516;SDS011;68821;59.134;37.894;2023-07-20T04:35:44;19.60;;;6.00;;
67516;SDS011;68821;59.134;37.894;2023-07-20T04:38:20;11.30;;;5.18;;
67516;SDS011;68821;59.134;37.894;2023-07-20T04:40:47;11.70;;;5.35;;
67516;SDS011;68821;59.134;37.894;2023-07-20T04:43:14;9.38;;;5.30;;
67516;SDS011;68821;59.134;37.894;2023-07-20T04:45:41;12.75;;;6.60;;
67516;SDS011;68821;59.134;37.894;2023-07-20T04:48:12;13.02;;;5.32;;
67516;SDS011;68821;59.134;37.894;2023-07-20T04:50:42;16.33;;;6.10;;
67516;SDS011;68821;59.134;37.894;2023-07-20T04:53:19;14.60;;;6.57;;
67516;SDS011;68821;59.134;37.894;2023-07-20T04:55:49;12.15;;;6.95;;
67516;SDS011;68821;59.134;37.894;2023-07-20T04:58:20;16.05;;;7.90;;
67516;SDS011;68821;59.134;37.894;2023-07-20T05:00:48;16.15;;;6.05;;
67516;SDS011;68821;59.134;37.894;2023-07-20T05:05:41;10.25;;;6.55;;
67516;SDS011;68821;59.134;37.894;2023-07-20T05:08:07;20.52;;;8.35;;
67516;SDS011;68821;59.134;37.894;2023-07-20T05:10:33;24.30;;;7.25;;
67516;SDS011;68821;59.134;37.894;2023-07-20T05:12:59;19.15;;;5.57;;
67516;SDS011;68821;59.134;37.894;2023-07-20T05:15:26;19.20;;;7.15;;
67516;SDS011;68821;59.134;37.894;2023-07-20T05:17:56;15.23;;;5.72;;
67516;SDS011;68821;59.134;37.894;2023-07-20T05:20:22;9.30;;;6.18;;
67516;SDS011;68821;59.134;37.894;2023-07-20T05:22:48;10.50;;;4.90;;
67516;SDS011;68821;59.134;37.894;2023-07-20T05:25:17;12.88;;;5.90;;
67516;SDS011;68821;59.134;37.894;2023-07-20T05:27:44;14.13;;;5.78;;
67516;SDS011;68821;59.134;37.894;2023-07-20T05:30:12;13.25;;;6.22;;
67516;SDS011;68821;59.134;37.894;2023-07-20T05:32:38;17.50;;;9.88;;
67516;SDS011;68821;59.134;37.894;2023-07-20T05:35:04;20.77;;;7.90;;
67516;SDS011;68821;59.134;37.894;2023-07-20T05:37:31;16.83;;;7.95;;
67516;SDS011;68821;59.134;37.894;2023-07-20T05:39:57;11.40;;;6.40;;
67516;SDS011;68821;59.134;37.894;2023-07-20T05:42:24;10.60;;;5.95;;
67516;SDS011;68821;59.134;37.894;2023-07-20T05:44:50;13.18;;;5.93;;
67516;SDS011;68821;59.134;37.894;2023-07-20T05:47:18;14.40;;;5.97;;
67516;SDS011;68821;59.134;37.894;2023-07-20T05:49:44;13.63;;;6.07;;
67516;SDS011;68821;59.134;37.894;2023-07-20T05:52:11;10.00;;;6.30;;
67516;SDS011;68821;59.134;37.894;2023-07-20T05:54:37;13.18;;;6.80;;
67516;SDS011;68821;59.134;37.894;2023-07-20T05:57:03;17.52;;;5.32;;
67516;SDS011;68821;59.134;37.894;2023-07-20T05:59:30;12.32;;;5.35;;
67516;SDS011;68821;59.134;37.894;2023-07-20T06:01:57;16.88;;;8.18;;
67516;SDS011;68821;59.134;37.894;2023-07-20T06:04:23;14.25;;;5.28;;
67516;SDS011;68821;59.134;37.894;2023-07-20T06:06:49;20.92;;;7.15;;
67516;SDS011;68821;59.134;37.894;2023-07-20T06:09:15;10.88;;;4.85;;
67516;SDS011;68821;59.134;37.894;2023-07-20T06:11:42;12.32;;;5.43;;
67516;SDS011;68821;59.134;37.894;2023-07-20T06:14:08;11.70;;;6.15;;
67516;SDS011;68821;59.134;37.894;2023-07-20T06:16:35;15.60;;;5.53;;
67516;SDS011;68821;59.134;37.894;2023-07-20T06:19:01;9.40;;;5.22;;
67516;SDS011;68821;59.134;37.894;2023-07-20T06:21:27;11.82;;;4.88;;
67516;SDS011;68821;59.134;37.894;2023-07-20T06:23:54;14.40;;;4.63;;
67516;SDS011;68821;59.134;37.894;2023-07-20T06:26:20;11.38;;;4.22;;
67516;SDS011;68821;59.134;37.894;2023-07-20T06:28:46;8.20;;;4.68;;
67516;SDS011;68821;59.134;37.894;2023-07-20T06:31:12;11.32;;;3.97;;
67516;SDS011;68821;59.134;37.894;2023-07-20T06:33:39;9.68;;;3.88;;
67516;SDS011;68821;59.134;37.894;2023-07-20T06:36:05;11.65;;;4.80;;
67516;SDS011;68821;59.134;37.894;2023-07-20T06:38:31;10.35;;;4.28;;
67516;SDS011;68821;59.134;37.894;2023-07-20T06:40:57;9.55;;;3.67;;
67516;SDS011;68821;59.134;37.894;2023-07-20T06:43:24;11.52;;;3.88;;
67516;SDS011;68821;59.134;37.894;2023-07-20T06:45:53;8.65;;;4.53;;
67516;SDS011;68821;59.134;37.894;2023-07-20T06:48:20;10.90;;;5.20;;
67516;SDS011;68821;59.134;37.894;2023-07-20T06:50:47;8.63;;;3.83;;
67516;SDS011;68821;59.134;37.894;2023-07-20T06:53:13;9.10;;;4.43;;
67516;SDS011;68821;59.134;37.894;2023-07-20T06:55:41;16.10;;;3.53;;
67516;SDS011;68821;59.134;37.894;2023-07-20T06:58:08;7.45;;;3.47;;
67516;SDS011;68821;59.134;37.894;2023-07-20T07:00:35;9.65;;;4.03;;
67516;SDS011;68821;59.134;37.894;2023-07-20T07:03:01;11.90;;;5.40;;
67516;SDS011;68821;59.134;37.894;2023-07-20T07:05:28;12.80;;;5.68;;
67516;SDS011;68821;59.134;37.894;2023-07-20T07:07:54;9.30;;;3.58;;
67516;SDS011;68821;59.134;37.894;2023-07-20T07:10:20;12.63;;;5.10;;
67516;SDS011;68821;59.134;37.894;2023-07-20T07:12:47;11.77;;;4.95;;
67516;SDS011;68821;59.134;37.894;2023-07-20T07:15:13;16.42;;;7.32;;
67516;SDS011;68821;59.134;37.894;2023-07-20T07:17:39;16.90;;;6.30;;
67516;SDS011;68821;59.134;37.894;2023-07-20T07:20:06;11.05;;;6.28;;
67516;SDS011;68821;59.134;37.894;2023-07-20T07:22:33;8.00;;;3.72;;
67516;SDS011;68821;59.134;37.894;2023-07-20T07:24:59;10.18;;;3.58;;
67516;SDS011;68821;59.134;37.894;2023-07-20T07:27:26;7.18;;;3.28;;
67516;SDS011;68821;59.134;37.894;2023-07-20T07:29:52;8.38;;;3.85;;
67516;SDS011;68821;59.134;37.894;2023-07-20T07:32:18;16.00;;;4.78;;
67516;SDS011;68821;59.134;37.894;2023-07-20T07:34:45;6.65;;;2.58;;
67516;SDS011;68821;59.134;37.894;2023-07-20T07:37:14;9.00;;;2.90;;
67516;SDS011;68821;59.134;37.894;2023-07-20T07:39:41;10.80;;;4.05;;
67516;SDS011;68821;59.134;37.894;2023-07-20T07:42:07;9.75;;;3.17;;
67516;SDS011;68821;59.134;37.894;2023-07-20T07:44:33;9.05;;;3.08;;
67516;SDS011;68821;59.134;37.894;2023-07-20T07:46:59;9.15;;;3.00;;
67516;SDS011;68821;59.134;37.894;2023-07-20T07:49:26;15.23;;;3.30;;
67516;SDS011;68821;59.134;37.894;2023-07-20T07:51:53;11.45;;;3.08;;
67516;SDS011;68821;59.134;37.894;2023-07-20T07:54:19;8.60;;;3.17;;
67516;SDS011;68821;59.134;37.894;2023-07-20T07:56:46;8.07;;;3.15;;
67516;SDS011;68821;59.134;37.894;2023-07-20T07:59:12;12.20;;;3.05;;
67516;SDS011;68821;59.134;37.894;2023-07-20T08:01:38;10.20;;;3.30;;
67516;SDS011;68821;59.134;37.894;2023-07-20T08:04:04;13.95;;;3.58;;
67516;SDS011;68821;59.134;37.894;2023-07-20T08:06:31;16.90;;;3.80;;
67516;SDS011;68821;59.134;37.894;2023-07-20T08:08:57;9.55;;;2.35;;
67516;SDS011;68821;59.134;37.894;2023-07-20T08:11:23;15.23;;;3.00;;
67516;SDS011;68821;59.134;37.894;2023-07-20T08:13:50;11.63;;;3.42;;
67516;SDS011;68821;59.134;37.894;2023-07-20T08:16:16;14.05;;;3.50;;
67516;SDS011;68821;59.134;37.894;2023-07-20T08:18:43;17.15;;;3.53;;
67516;SDS011;68821;59.134;37.894;2023-07-20T08:21:10;18.83;;;3.67;;
67516;SDS011;68821;59.134;37.894;2023-07-20T08:23:36;16.90;;;2.83;;
67516;SDS011;68821;59.134;37.894;2023-07-20T08:26:03;14.63;;;4.13;;
67516;SDS011;68821;59.134;37.894;2023-07-20T08:30:55;9.35;;;3.92;;
67516;SDS011;68821;59.134;37.894;2023-07-20T08:33:22;10.52;;;2.88;;
67516;SDS011;68821;59.134;37.894;2023-07-20T08:38:15;8.60;;;3.38;;
67516;SDS011;68821;59.134;37.894;2023-07-20T08:40:44;14.77;;;4.78;;
67516;SDS011;68821;59.134;37.894;2023-07-20T08:43:12;11.27;;;4.72;;
67516;SDS011;68821;59.134;37.894;2023-07-20T08:45:49;13.48;;;5.00;;
67516;SDS011;68821;59.134;37.894;2023-07-20T08:48:20;7.65;;;2.55;;
67516;SDS011;68821;59.134;37.894;2023-07-20T08:50:47;8.30;;;2.58;;
67516;SDS011;68821;59.134;37.894;2023-07-20T08:53:19;7.35;;;2.97;;
67516;SDS011;68821;59.134;37.894;2023-07-20T08:55:46;7.30;;;2.83;;
67516;SDS011;68821;59.134;37.894;2023-07-20T08:58:18;11.38;;;3.47;;
67516;SDS011;68821;59.134;37.894;2023-07-20T09:00:44;9.82;;;3.80;;
67516;SDS011;68821;59.134;37.894;2023-07-20T09:05:37;9.93;;;3.53;;
67516;SDS011;68821;59.134;37.894;2023-07-20T09:08:05;15.85;;;4.55;;
67516;SDS011;68821;59.134;37.894;2023-07-20T09:10:32;22.20;;;5.82;;
67516;SDS011;68821;59.134;37.894;2023-07-20T09:12:58;14.93;;;5.38;;
67516;SDS011;68821;59.134;37.894;2023-07-20T09:15:24;19.17;;;6.38;;
67516;SDS011;68821;59.134;37.894;2023-07-20T09:20:19;14.25;;;3.45;;
67516;SDS011;68821;59.134;37.894;2023-07-20T09:22:46;7.05;;;3.10;;
67516;SDS011;68821;59.134;37.894;2023-07-20T09:25:13;8.82;;;3.20;;
67516;SDS011;68821;59.134;37.894;2023-07-20T09:27:41;8.73;;;3.55;;
67516;SDS011;68821;59.134;37.894;2023-07-20T09:30:12;9.00;;;4.45;;
67516;SDS011;68821;59.134;37.894;2023-07-20T09:32:46;10.32;;;3.67;;
67516;SDS011;68821;59.134;37.894;2023-07-20T09:35:14;8.02;;;2.33;;
67516;SDS011;68821;59.134;37.894;2023-07-20T09:37:53;8.48;;;3.00;;
67516;SDS011;68821;59.134;37.894;2023-07-20T09:40:20;9.45;;;3.78;;
67516;SDS011;68821;59.134;37.894;2023-07-20T09:45:13;9.50;;;4.03;;
67516;SDS011;68821;59.134;37.894;2023-07-20T09:47:43;12.82;;;4.18;;
67516;SDS011;68821;59.134;37.894;2023-07-20T09:50:09;16.50;;;5.30;;
67516;SDS011;68821;59.134;37.894;2023-07-20T09:52:38;30.27;;;9.63;;
67516;SDS011;68821;59.134;37.894;2023-07-20T09:55:17;22.15;;;7.43;;
67516;SDS011;68821;59.134;37.894;2023-07-20T09:57:44;34.30;;;8.77;;
67516;SDS011;68821;59.134;37.894;2023-07-20T10:00:11;14.35;;;4.60;;
67516;SDS011;68821;59.134;37.894;2023-07-20T10:02:41;7.32;;;2.15;;
67516;SDS011;68821;59.134;37.894;2023-07-20T10:05:11;12.13;;;2.75;;
67516;SDS011;68821;59.134;37.894;2023-07-20T10:07:44;15.48;;;2.28;;
67516;SDS011;68821;59.134;37.894;2023-07-20T10:10:13;6.95;;;2.53;;
67516;SDS011;68821;59.134;37.894;2023-07-20T10:12:44;11.63;;;2.60;;
67516;SDS011;68821;59.134;37.894;2023-07-20T10:20:55;10.50;;;2.28;;
67516;SDS011;68821;59.134;37.894;2023-07-20T10:23:24;9.65;;;2.30;;
67516;SDS011;68821;59.134;37.894;2023-07-20T10:25:50;16.83;;;3.00;;
67516;SDS011;68821;59.134;37.894;2023-07-20T10:28:16;15.60;;;3.70;;
67516;SDS011;68821;59.134;37.894;2023-07-20T10:30:43;8.45;;;3.78;;
67516;SDS011;68821;59.134;37.894;2023-07-20T10:33:10;8.65;;;3.45;;
67516;SDS011;68821;59.134;37.894;2023-07-20T10:35:53;9.05;;;3.10;;
67516;SDS011;68821;59.134;37.894;2023-07-20T10:41:32;9.55;;;3.60;;
67516;SDS011;68821;59.134;37.894;2023-07-20T10:44:04;11.93;;;4.13;;
67516;SDS011;68821;59.134;37.894;2023-07-20T10:46:34;9.65;;;2.95;;
67516;SDS011;68821;59.134;37.894;2023-07-20T10:49:11;15.38;;;3.22;;
67516;SDS011;68821;59.134;37.894;2023-07-20T10:51:39;8.77;;;3.10;;
67516;SDS011;68821;59.134;37.894;2023-07-20T10:54:52;12.27;;;3.28;;
67516;SDS011;68821;59.134;37.894;2023-07-20T10:56:54;10.50;;;2.78;;
67516;SDS011;68821;59.134;37.894;2023-07-20T11:01:57;8.45;;;3.50;;
67516;SDS011;68821;59.134;37.894;2023-07-20T11:04:48;15.52;;;4.15;;
67516;SDS011;68821;59.134;37.894;2023-07-20T11:07:18;8.75;;;2.80;;
67516;SDS011;68821;59.134;37.894;2023-07-20T11:10:15;13.57;;;2.85;;
67516;SDS011;68821;59.134;37.894;2023-07-20T11:13:15;9.60;;;3.00;;
67516;SDS011;68821;59.134;37.894;2023-07-20T11:18:27;10.85;;;3.40;;
67516;SDS011;68821;59.134;37.894;2023-07-20T11:20:53;7.97;;;3.10;;
67516;SDS011;68821;59.134;37.894;2023-07-20T11:23:20;8.60;;;2.15;;
67516;SDS011;68821;59.134;37.894;2023-07-20T11:25:47;13.75;;;3.08;;
67516;SDS011;68821;59.134;37.894;2023-07-20T11:28:13;11.90;;;2.55;;
67516;SDS011;68821;59.134;37.894;2023-07-20T11:30:39;14.10;;;4.40;;
67516;SDS011;68821;59.134;37.894;2023-07-20T11:33:08;22.40;;;5.15;;
67516;SDS011;68821;59.134;37.894;2023-07-20T11:35:35;26.98;;;9.65;;
67516;SDS011;68821;59.134;37.894;2023-07-20T11:38:12;38.92;;;13.43;;
67516;SDS011;68821;59.134;37.894;2023-07-20T11:43:09;37.38;;;11.05;;
67516;SDS011;68821;59.134;37.894;2023-07-20T11:45:44;36.40;;;11.85;;
67516;SDS011;68821;59.134;37.894;2023-07-20T11:50:41;19.40;;;8.20;;
67516;SDS011;68821;59.134;37.894;2023-07-20T11:53:07;24.88;;;8.77;;
67516;SDS011;68821;59.134;37.894;2023-07-20T11:55:34;19.13;;;5.63;;
67516;SDS011;68821;59.134;37.894;2023-07-20T11:58:07;12.52;;;3.55;;
67516;SDS011;68821;59.134;37.894;2023-07-20T12:00:39;16.00;;;3.00;;
67516;SDS011;68821;59.134;37.894;2023-07-20T12:03:09;14.15;;;6.25;;
67516;SDS011;68821;59.134;37.894;2023-07-20T12:05:37;7.88;;;2.30;;
67516;SDS011;68821;59.134;37.894;2023-07-20T12:08:04;9.10;;;2.40;;
67516;SDS011;68821;59.134;37.894;2023-07-20T12:10:30;5.80;;;2.28;;
67516;SDS011;68821;59.134;37.894;2023-07-20T12:13:03;6.93;;;3.28;;
67516;SDS011;68821;59.134;37.894;2023-07-20T12:15:29;8.40;;;4.75;;
67516;SDS011;68821;59.134;37.894;2023-07-20T12:17:58;21.08;;;6.57;;
67516;SDS011;68821;59.134;37.894;2023-07-20T12:20:27;8.18;;;4.22;;
67516;SDS011;68821;59.134;37.894;2023-07-20T12:22:59;13.40;;;4.38;;
67516;SDS011;68821;59.134;37.894;2023-07-20T12:25:33;12.35;;;4.13;;
67516;SDS011;68821;59.134;37.894;2023-07-20T12:28:10;8.00;;;2.95;;
67516;SDS011;68821;59.134;37.894;2023-07-20T12:30:39;7.97;;;2.47;;
67516;SDS011;68821;59.134;37.894;2023-07-20T12:33:07;6.05;;;2.30;;
67516;SDS011;68821;59.134;37.894;2023-07-20T12:35:33;18.63;;;4.00;;
67516;SDS011;68821;59.134;37.894;2023-07-20T12:38:00;9.48;;;3.25;;
67516;SDS011;68821;59.134;37.894;2023-07-20T12:40:27;10.00;;;4.07;;
67516;SDS011;68821;59.134;37.894;2023-07-20T12:42:53;13.30;;;4.05;;
67516;SDS011;68821;59.134;37.894;2023-07-20T12:45:19;8.40;;;2.92;;
67516;SDS011;68821;59.134;37.894;2023-07-20T12:47:47;8.45;;;3.53;;
67516;SDS011;68821;59.134;37.894;2023-07-20T12:50:13;8.52;;;4.15;;
67516;SDS011;68821;59.134;37.894;2023-07-20T12:52:40;8.70;;;3.33;;
67516;SDS011;68821;59.134;37.894;2023-07-20T12:55:07;10.35;;;3.45;;
67516;SDS011;68821;59.134;37.894;2023-07-20T12:57:35;9.20;;;2.70;;
67516;SDS011;68821;59.134;37.894;2023-07-20T13:00:03;9.60;;;3.40;;
67516;SDS011;68821;59.134;37.894;2023-07-20T13:02:34;9.38;;;2.90;;
67516;SDS011;68821;59.134;37.894;2023-07-20T13:05:01;10.63;;;3.20;;
67516;SDS011;68821;59.134;37.894;2023-07-20T13:07:38;21.80;;;5.88;;
67516;SDS011;68821;59.134;37.894;2023-07-20T13:10:06;16.92;;;4.82;;
67516;SDS011;68821;59.134;37.894;2023-07-20T13:12:33;17.33;;;4.78;;
67516;SDS011;68821;59.134;37.894;2023-07-20T13:15:02;20.98;;;5.65;;
67516;SDS011;68821;59.134;37.894;2023-07-20T13:17:32;30.42;;;8.30;;
67516;SDS011;68821;59.134;37.894;2023-07-20T13:20:03;24.15;;;6.85;;
67516;SDS011;68821;59.134;37.894;2023-07-20T13:22:36;34.97;;;8.80;;
67516;SDS011;68821;59.134;37.894;2023-07-20T13:25:08;22.83;;;5.63;;
67516;SDS011;68821;59.134;37.894;2023-07-20T13:27:35;23.27;;;7.07;;
67516;SDS011;68821;59.134;37.894;2023-07-20T13:30:04;12.57;;;3.58;;
67516;SDS011;68821;59.134;37.894;2023-07-20T13:32:43;6.90;;;3.22;;
67516;SDS011;68821;59.134;37.894;2023-07-20T13:35:12;7.35;;;3.20;;
67516;SDS011;68821;59.134;37.894;2023-07-20T13:37:38;11.82;;;3.63;;
67516;SDS011;68821;59.134;37.894;2023-07-20T13:40:05;9.30;;;3.17;;
67516;SDS011;68821;59.134;37.894;2023-07-20T13:42:36;9.00;;;4.00;;
67516;SDS011;68821;59.134;37.894;2023-07-20T13:45:03;14.30;;;4.55;;
67516;SDS011;68821;59.134;37.894;2023-07-20T13:47:32;13.30;;;3.95;;
67516;SDS011;68821;59.134;37.894;2023-07-20T13:49:58;13.63;;;3.72;;
67516;SDS011;68821;59.134;37.894;2023-07-20T13:54:51;22.75;;;6.18;;
67516;SDS011;68821;59.134;37.894;2023-07-20T13:57:18;20.85;;;6.63;;
67516;SDS011;68821;59.134;37.894;2023-07-20T13:59:44;18.63;;;7.60;;
67516;SDS011;68821;59.134;37.894;2023-07-20T14:02:10;19.77;;;6.40;;
67516;SDS011;68821;59.134;37.894;2023-07-20T14:07:03;18.17;;;4.82;;
67516;SDS011;68821;59.134;37.894;2023-07-20T14:09:30;17.00;;;4.90;;
67516;SDS011;68821;59.134;37.894;2023-07-20T14:11:56;21.40;;;6.13;;
67516;SDS011;68821;59.134;37.894;2023-07-20T14:14:23;11.40;;;3.67;;
67516;SDS011;68821;59.134;37.894;2023-07-20T14:16:49;9.05;;;3.58;;
67516;SDS011;68821;59.134;37.894;2023-07-20T14:19:15;8.18;;;3.22;;
67516;SDS011;68821;59.134;37.894;2023-07-20T14:21:41;7.78;;;4.00;;
67516;SDS011;68821;59.134;37.894;2023-07-20T14:24:08;3.75;;;1.75;;
67516;SDS011;68821;59.134;37.894;2023-07-20T14:26:34;9.65;;;3.65;;
67516;SDS011;68821;59.134;37.894;2023-07-20T14:29:01;14.07;;;5.05;;
67516;SDS011;68821;59.134;37.894;2023-07-20T14:31:27;16.95;;;4.95;;
67516;SDS011;68821;59.134;37.894;2023-07-20T14:33:54;19.63;;;5.57;;
67516;SDS011;68821;59.134;37.894;2023-07-20T14:36:20;14.85;;;5.43;;
67516;SDS011;68821;59.134;37.894;2023-07-20T14:38:46;13.13;;;4.47;;
67516;SDS011;68821;59.134;37.894;2023-07-20T14:41:13;15.73;;;4.32;;
67516;SDS011;68821;59.134;37.894;2023-07-20T14:43:39;11.48;;;2.75;;
67516;SDS011;68821;59.134;37.894;2023-07-20T14:46:05;23.52;;;7.72;;
67516;SDS011;68821;59.134;37.894;2023-07-20T14:48:32;27.50;;;9.00;;
67516;SDS011;68821;59.134;37.894;2023-07-20T14:50:58;17.58;;;6.22;;
67516;SDS011;68821;59.134;37.894;2023-07-20T14:53:24;22.27;;;5.97;;
67516;SDS011;68821;59.134;37.894;2023-07-20T14:55:58;11.10;;;3.95;;
67516;SDS011;68821;59.134;37.894;2023-07-20T14:58:27;16.25;;;4.63;;
67516;SDS011;68821;59.134;37.894;2023-07-20T15:00:54;21.40;;;7.15;;
67516;SDS011;68821;59.134;37.894;2023-07-20T15:03:21;19.17;;;4.97;;
67516;SDS011;68821;59.134;37.894;2023-07-20T15:05:47;10.48;;;2.70;;
67516;SDS011;68821;59.134;37.894;2023-07-20T15:08:13;13.15;;;4.25;;
67516;SDS011;68821;59.134;37.894;2023-07-20T15:10:40;10.65;;;3.20;;
67516;SDS011;68821;59.134;37.894;2023-07-20T15:13:07;11.18;;;2.80;;
67516;SDS011;68821;59.134;37.894;2023-07-20T15:15:33;15.25;;;3.53;;
67516;SDS011;68821;59.134;37.894;2023-07-20T15:18:00;15.13;;;3.58;;
67516;SDS011;68821;59.134;37.894;2023-07-20T15:20:26;13.88;;;3.65;;
67516;SDS011;68821;59.134;37.894;2023-07-20T15:22:53;13.15;;;3.05;;
67516;SDS011;68821;59.134;37.894;2023-07-20T15:25:19;8.85;;;3.30;;
67516;SDS011;68821;59.134;37.894;2023-07-20T15:27:45;8.57;;;2.72;;